This is the latest recevied weather packets stored in our database for station/object CW79215. If no packets are shown the sender has not sent any weather packets the latest 10 day(s).
| Time | Temp. | Humidity | Pressure | Rain* | Wind** | Luminosity | Snow |
|---|---|---|---|---|---|---|---|
| 1788271554 | 23.89° C | 36% | 1031.1 hPa | - | - | - | - |
| 1788270635 | 23.89° C | 37% | 1031.2 hPa | - | - | - | - |
| 1788269735 | 24.44° C | 33% | 1031.4 hPa | - | - | - | - |
| 1788268834 | 23.33° C | 36% | 1031.4 hPa | - | - | - | - |
| 1788267934 | 23.89° C | 36% | 1031.5 hPa | - | - | - | - |
| 1788267034 | 23.89° C | 35% | 1031.7 hPa | - | - | - | - |
| 1788266134 | 23.89° C | 35% | 1031.8 hPa | - | - | - | - |
| 1788265234 | 23.89° C | 35% | 1031.8 hPa | - | - | - | - |
| 1788264334 | 25.56° C | 33% | 1031.9 hPa | - | - | - | - |
| 1788263434 | 23.89° C | 35% | 1032.1 hPa | - | - | - | - |
| 1788262534 | 23.89° C | 36% | 1032.2 hPa | - | - | - | - |
| 1788261634 | 24.44° C | 33% | 1032.1 hPa | - | - | - | - |
| 1788260734 | 24.44° C | 37% | 1032.2 hPa | - | - | - | - |
| 1788259834 | 23.89° C | 38% | 1032.3 hPa | - | - | - | - |
| 1788258933 | 25° C | 37% | 1032.2 hPa | - | - | - | - |
| 1788258033 | 24.44° C | 38% | 1032.3 hPa | - | - | - | - |
| 1788257132 | 23.89° C | 40% | 1032.5 hPa | - | - | - | - |
| 1788256232 | 23.89° C | 42% | 1032.6 hPa | - | - | - | - |
| 1788255332 | 24.44° C | 42% | 1032.6 hPa | - | - | - | - |
| 1788254432 | 24.44° C | 43% | 1032.6 hPa | - | - | - | - |
| 1788253532 | 23.33° C | 47% | 1032.6 hPa | - | - | - | - |
| 1788252641 | 23.89° C | 48% | 1032.6 hPa | - | - | - | - |
| 1788251734 | 22.78° C | 52% | 1032.8 hPa | - | - | - | - |
| 1788250834 | 23.33° C | 50% | 1032.6 hPa | - | - | - | - |
| 1788249934 | 22.78° C | 53% | 1032.6 hPa | - | - | - | - |
* Rain since midnight (hover to see other rain measurements)
** Current wind speed in m/s (hover to see current wind gust speed)